Time;durP1;ratioP1;P1;durP2;ratioP2;P2;SDS_P1;SDS_P2;PMS_P1;PMS_P2;Temp;Humidity;BMP_temperature;BMP_pressure;BME280_temperature;BME280_humidity;BME280_pressure;Samples;Min_cycle;Max_cycle;Signal;HPM_P1;HPM_P2
2023/04/15 00:01:22;;;;;;;5.50;5.10;;;;;;;14.95;100.00;149795.00;5095081;28;20257;-62
2023/04/15 00:03:51;;;;;;;4.00;3.60;;;;;;;15.08;100.00;149829.28;5095002;28;20215;-63
2023/04/15 00:06:19;;;;;;;6.80;3.80;;;;;;;15.19;100.00;149854.66;5094761;28;20275;-62
2023/04/15 00:08:49;;;;;;;11.63;3.73;;;;;;;15.01;100.00;149810.25;5095095;28;20535;-62
2023/04/15 00:11:17;;;;;;;5.33;3.53;;;;;;;15.00;100.00;149808.97;5094954;28;20633;-62
2023/04/15 00:13:44;;;;;;;9.23;3.70;;;;;;;15.02;100.00;149814.03;5095022;28;20192;-62
2023/04/15 00:16:11;;;;;;;6.53;4.97;;;;;;;14.98;100.00;149803.88;5094323;28;20245;-62
2023/04/15 00:18:38;;;;;;;5.40;4.90;;;;;;;14.85;100.00;149770.91;5094491;28;20188;-63
2023/04/15 00:21:06;;;;;;;4.17;3.60;;;;;;;15.00;100.00;149808.97;5094742;28;20294;-62
2023/04/15 00:23:33;;;;;;;8.60;4.23;;;;;;;15.04;100.00;149819.13;5094106;28;20188;-61
2023/04/15 00:26:01;;;;;;;3.90;3.60;;;;;;;14.93;100.00;149791.22;5094394;28;20192;-61
2023/04/15 00:28:28;;;;;;;12.03;10.03;;;;;;;14.85;100.00;149769.66;5094605;28;20543;-63
2023/04/15 00:30:55;;;;;;;11.90;8.97;;;;;;;14.79;100.00;149755.72;5094286;28;20219;-62
2023/04/15 00:33:22;;;;;;;6.27;5.77;;;;;;;14.78;100.00;149751.88;5094425;28;20191;-62
2023/04/15 00:35:49;;;;;;;6.47;5.90;;;;;;;14.80;100.00;149758.25;5094242;28;20237;-62
2023/04/15 00:38:16;;;;;;;11.97;4.63;;;;;;;14.69;100.00;149729.06;5094520;28;20607;-62
2023/04/15 00:40:44;;;;;;;6.73;4.50;;;;;;;14.74;100.00;149741.75;5094271;28;20290;-62
2023/04/15 00:43:12;;;;;;;17.57;9.60;;;;;;;14.56;100.00;149698.63;5093676;28;20296;-62
2023/04/15 00:45:40;;;;;;;8.30;5.23;;;;;;;14.46;100.00;149673.31;5094097;28;20187;-63
2023/04/15 00:48:08;;;;;;;21.77;10.70;;;;;;;14.31;100.00;149635.19;5093760;28;20247;-62
2023/04/15 00:50:35;;;;;;;20.60;11.07;;;;;;;13.84;100.00;149516.03;5094253;28;20195;-63
2023/04/15 00:53:02;;;;;;;28.20;10.80;;;;;;;14.36;100.00;149646.66;5093717;28;20267;-62
2023/04/15 00:55:29;;;;;;;24.53;11.03;;;;;;;14.21;100.00;149608.59;5094398;28;20187;-62
2023/04/15 00:57:57;;;;;;;47.53;13.20;;;;;;;14.17;100.00;149599.72;5093568;28;20184;-62
2023/04/15 01:00:26;;;;;;;75.50;14.33;;;;;;;14.21;100.00;149608.59;5093756;28;20184;-62
2023/04/15 01:02:53;;;;;;;64.43;15.53;;;;;;;14.19;100.00;149606.03;5093985;28;20741;-62
2023/04/15 01:05:20;;;;;;;49.30;14.10;;;;;;;14.31;100.00;149633.91;5093524;28;20187;-62
2023/04/15 01:07:48;;;;;;;64.13;15.10;;;;;;;14.37;100.00;149649.19;5093746;28;20710;-62
2023/04/15 01:10:15;;;;;;;58.53;14.00;;;;;;;14.40;100.00;149656.78;5092962;28;20227;-62
2023/04/15 01:12:42;;;;;;;26.07;11.10;;;;;;;14.52;100.00;149687.22;5093330;28;20705;-63
2023/04/15 01:15:10;;;;;;;35.60;11.00;;;;;;;14.64;100.00;149717.63;5093316;28;20558;-63
2023/04/15 01:17:39;;;;;;;37.90;11.10;;;;;;;14.84;100.00;149768.41;5093102;28;20238;-62
2023/04/15 01:20:08;;;;;;;51.70;11.63;;;;;;;14.91;100.00;149786.13;5093417;28;20214;-62
2023/04/15 01:22:37;;;;;;;19.20;7.50;;;;;;;14.91;100.00;149784.88;5093193;28;20241;-62
2023/04/15 01:25:10;;;;;;;25.57;8.47;;;;;;;15.04;100.00;149819.13;5093271;28;20231;-62
2023/04/15 01:27:41;;;;;;;42.87;11.10;;;;;;;15.20;100.00;149857.16;5093282;28;20185;-65
2023/04/15 01:30:11;;;;;;;16.30;7.13;;;;;;;14.84;100.00;149768.41;5093253;28;20635;-62
2023/04/15 01:32:38;;;;;;;38.97;10.47;;;;;;;15.12;100.00;149836.88;5092794;28;20297;-63
2023/04/15 01:35:06;;;;;;;29.77;10.43;;;;;;;15.23;100.00;149864.81;5093028;28;20279;-62
2023/04/15 01:37:33;;;;;;;33.47;9.53;;;;;;;15.25;100.00;149871.13;5093189;28;20183;-62
2023/04/15 01:40:02;;;;;;;33.47;11.60;;;;;;;15.20;100.00;149857.16;5093313;28;20291;-63
2023/04/15 01:42:29;;;;;;;43.37;12.77;;;;;;;15.14;100.00;149841.97;5092662;28;20212;-62
2023/04/15 01:44:57;;;;;;;54.70;12.30;;;;;;;15.25;100.00;149869.84;5093008;28;20188;-62
2023/04/15 01:47:24;;;;;;;44.77;13.47;;;;;;;15.17;100.00;149849.56;5092866;28;20231;-62
2023/04/15 01:49:51;;;;;;;41.97;12.70;;;;;;;15.20;100.00;149858.44;5093161;28;20675;-62
2023/04/15 01:52:18;;;;;;;43.43;14.60;;;;;;;15.20;100.00;149858.44;5093037;28;20642;-62
2023/04/15 01:54:45;;;;;;;43.20;14.17;;;;;;;15.22;100.00;149862.25;5092470;28;20216;-62
2023/04/15 01:57:12;;;;;;;42.47;13.13;;;;;;;15.26;100.00;149872.41;5092806;28;20184;-62
2023/04/15 01:59:39;;;;;;;39.40;12.53;;;;;;;15.21;100.00;149859.72;5092321;28;20184;-63
2023/04/15 02:02:08;;;;;;;33.53;12.03;;;;;;;15.21;100.00;149859.72;5092192;28;20227;-62
2023/04/15 02:04:35;;;;;;;40.13;9.37;;;;;;;14.97;100.00;149801.38;5092493;28;20278;-62
2023/04/15 02:07:02;;;;;;;37.53;11.17;;;;;;;14.79;100.00;149755.72;5092441;28;20647;-63
2023/04/15 02:09:29;;;;;;;29.53;10.43;;;;;;;14.87;100.00;149776.00;5092473;28;20275;-62
2023/04/15 02:11:57;;;;;;;36.87;10.13;;;;;;;14.80;100.00;149756.97;5092253;28;20230;-61
2023/04/15 02:14:23;;;;;;;22.50;10.77;;;;;;;14.85;100.00;149770.91;5092628;28;20278;-63
2023/04/15 02:16:50;;;;;;;19.50;7.37;;;;;;;14.77;100.00;149750.63;5092105;28;20188;-63
2023/04/15 02:19:21;;;;;;;12.47;6.70;;;;;;;14.81;100.00;149760.75;5091972;28;20272;-63
2023/04/15 02:21:48;;;;;;;25.33;8.00;;;;;;;14.87;100.00;149776.00;5091922;28;20291;-62
2023/04/15 02:24:15;;;;;;;25.77;8.00;;;;;;;14.89;100.00;149781.09;5091890;28;20677;-62
2023/04/15 02:26:42;;;;;;;57.17;12.77;;;;;;;14.94;100.00;149793.75;5092011;28;20286;-62
2023/04/15 02:29:09;;;;;;;67.87;12.23;;;;;;;14.87;100.00;149774.72;5092350;28;20627;-63
2023/04/15 02:31:39;;;;;;;33.93;11.13;;;;;;;14.82;100.00;149763.31;5091726;28;20196;-62
2023/04/15 02:34:06;;;;;;;51.30;10.17;;;;;;;14.71;100.00;149734.16;5090774;28;20203;-63
2023/04/15 02:36:34;;;;;;;34.57;10.57;;;;;;;14.60;100.00;149707.50;5091766;28;20290;-63
2023/04/15 02:39:01;;;;;;;33.13;10.30;;;;;;;14.63;100.00;149715.13;5091975;28;20202;-63
2023/04/15 02:41:29;;;;;;;57.45;10.80;;;;;;;14.67;100.00;149725.28;5092203;28;20200;-62
2023/04/15 02:43:56;;;;;;;33.60;11.30;;;;;;;14.55;100.00;149696.06;5091723;28;20419;-62
2023/04/15 02:46:23;;;;;;;30.30;11.07;;;;;;;14.59;100.00;149706.28;5091655;28;20184;-63
2023/04/15 02:48:52;;;;;;;38.13;10.57;;;;;;;14.60;100.00;149707.50;5091745;28;20211;-66
2023/04/15 02:51:20;;;;;;;36.07;8.67;;;;;;;14.52;100.00;149688.50;5092050;28;20191;-63
2023/04/15 02:53:49;;;;;;;46.60;9.77;;;;;;;14.50;100.00;149682.16;5091891;28;20271;-62
2023/04/15 02:56:18;;;;;;;45.20;10.57;;;;;;;14.49;100.00;149679.63;5092074;28;20523;-64
2023/04/15 02:58:45;;;;;;;37.60;10.27;;;;;;;14.53;100.00;149691.03;5091910;28;20245;-63
2023/04/15 03:01:12;;;;;;;34.20;10.13;;;;;;;14.31;100.00;149635.19;5092067;28;20192;-62
2023/04/15 03:03:39;;;;;;;39.93;10.23;;;;;;;14.43;100.00;149664.38;5091712;28;20254;-62
2023/04/15 03:06:07;;;;;;;39.97;10.17;;;;;;;14.25;100.00;149620.00;5092048;28;20287;-62
2023/04/15 03:08:34;;;;;;;40.43;10.70;;;;;;;14.29;100.00;149630.16;5091638;28;20200;-63
2023/04/15 03:11:03;;;;;;;23.00;9.97;;;;;;;14.28;100.00;149626.31;5091758;28;20188;-62
2023/04/15 03:13:30;;;;;;;30.33;10.07;;;;;;;13.86;100.00;149522.41;5091259;28;20224;-63
2023/04/15 03:15:57;;;;;;;15.57;9.23;;;;;;;14.28;100.00;149626.31;5091384;28;20279;-62
2023/04/15 03:18:24;;;;;;;23.73;8.60;;;;;;;14.43;100.00;149664.38;5092011;28;20338;-62
2023/04/15 03:20:51;;;;;;;14.60;6.10;;;;;;;14.57;100.00;149699.91;5091778;28;20219;-63
2023/04/15 03:23:18;;;;;;;17.10;7.10;;;;;;;14.63;100.00;149715.13;5090255;28;20204;-63
2023/04/15 03:25:45;;;;;;;7.93;6.17;;;;;;;14.81;100.00;149760.75;5091618;28;20223;-62
2023/04/15 03:28:14;;;;;;;13.13;6.10;;;;;;;14.95;100.00;149796.28;5091212;28;20185;-63
2023/04/15 03:30:41;;;;;;;14.27;6.40;;;;;;;14.99;100.00;149805.16;5091156;28;20276;-62
2023/04/15 03:33:08;;;;;;;10.77;5.93;;;;;;;15.05;100.00;149821.66;5091507;28;20185;-62
2023/04/15 03:35:35;;;;;;;12.83;5.73;;;;;;;15.15;100.00;149844.50;5095164;28;20180;-62
2023/04/15 03:38:02;;;;;;;10.87;5.87;;;;;;;15.26;100.00;149873.69;5095269;28;20690;-63
2023/04/15 03:40:29;;;;;;;8.43;4.90;;;;;;;15.38;100.00;149902.84;5095195;28;20192;-62
2023/04/15 03:42:56;;;;;;;4.73;4.27;;;;;;;15.45;100.00;149920.59;5095210;28;20298;-62
2023/04/15 03:45:25;;;;;;;13.33;5.07;;;;;;;15.56;100.00;149948.59;5095450;28;20654;-63
2023/04/15 03:47:52;;;;;;;11.20;5.00;;;;;;;15.69;100.00;149981.59;5094793;28;20181;-62
2023/04/15 03:50:18;;;;;;;15.30;5.93;;;;;;;15.78;100.00;150004.44;5095063;28;20267;-63
2023/04/15 03:52:46;;;;;;;19.07;9.00;;;;;;;15.60;100.00;149958.72;5095089;28;20188;-64
2023/04/15 03:55:13;;;;;;;17.50;7.80;;;;;;;15.31;100.00;149886.38;5095046;28;20614;-62
2023/04/15 03:57:40;;;;;;;12.80;7.43;;;;;;;15.14;100.00;149841.97;5095213;28;20642;-63
2023/04/15 04:00:09;;;;;;;12.87;6.77;;;;;;;15.16;100.00;149847.00;5095468;28;20707;-62
2023/04/15 04:02:37;;;;;;;10.10;6.57;;;;;;;15.00;100.00;149807.69;5094763;28;20214;-62
2023/04/15 04:05:07;;;;;;;21.67;6.90;;;;;;;15.14;100.00;149841.97;5095123;28;20199;-62
2023/04/15 04:07:34;;;;;;;11.23;5.17;;;;;;;15.13;100.00;149839.41;5094427;28;20192;-62
2023/04/15 04:10:02;;;;;;;8.00;5.13;;;;;;;15.14;100.00;149841.97;5094745;28;20180;-62
2023/04/15 04:12:29;;;;;;;8.03;6.17;;;;;;;15.06;100.00;149824.19;5094952;28;20223;-62
2023/04/15 04:14:56;;;;;;;11.00;8.13;;;;;;;14.91;100.00;149784.88;5094271;28;20282;-63
2023/04/15 04:17:23;;;;;;;18.47;10.70;;;;;;;14.88;100.00;149778.53;5094656;28;20607;-63
2023/04/15 04:19:51;;;;;;;15.80;11.03;;;;;;;14.94;100.00;149792.47;5094193;28;20274;-63
2023/04/15 04:22:22;;;;;;;23.57;9.87;;;;;;;14.97;100.00;149801.38;5094441;28;20658;-62
2023/04/15 04:24:49;;;;;;;15.27;8.40;;;;;;;15.07;100.00;149826.72;5094442;28;20184;-62
2023/04/15 04:27:16;;;;;;;13.13;6.53;;;;;;;15.20;100.00;149857.16;5094109;28;20220;-63
2023/04/15 04:29:43;;;;;;;11.20;5.87;;;;;;;15.20;100.00;149857.16;5094335;28;20195;-62
2023/04/15 04:32:10;;;;;;;10.47;6.23;;;;;;;15.13;100.00;149839.41;5093968;28;20696;-62
2023/04/15 04:34:37;;;;;;;12.47;6.70;;;;;;;15.15;100.00;149845.75;5094246;28;20188;-63
2023/04/15 04:37:06;;;;;;;14.60;6.27;;;;;;;15.31;100.00;149885.09;5094384;28;20621;-62
2023/04/15 04:39:33;;;;;;;12.93;6.17;;;;;;;15.34;100.00;149893.97;5093862;28;20231;-63
2023/04/15 04:42:00;;;;;;;13.87;6.33;;;;;;;15.34;100.00;149892.69;5094180;28;20190;-62
2023/04/15 04:44:27;;;;;;;9.60;6.07;;;;;;;15.17;100.00;149850.84;5093925;28;20548;-62
2023/04/15 04:46:58;;;;;;;7.23;6.23;;;;;;;15.04;100.00;149817.84;5092797;28;20192;-63
2023/04/15 04:49:25;;;;;;;9.30;5.37;;;;;;;14.90;100.00;149782.31;5093754;28;20199;-63
2023/04/15 04:51:52;;;;;;;7.97;6.53;;;;;;;14.91;100.00;149786.13;5093734;28;20184;-62
2023/04/15 04:54:21;;;;;;;15.30;5.87;;;;;;;14.95;100.00;149796.28;5093937;28;20659;-62
2023/04/15 04:56:48;;;;;;;6.23;5.37;;;;;;;14.97;100.00;149801.38;5093801;28;20559;-63
2023/04/15 04:59:15;;;;;;;12.00;5.87;;;;;;;14.93;100.00;149789.97;5093542;28;20237;-62
2023/04/15 05:01:42;;;;;;;12.27;6.37;;;;;;;15.00;100.00;149807.69;5093782;28;20184;-63
2023/04/15 05:04:09;;;;;;;11.63;5.90;;;;;;;15.11;100.00;149834.38;5093609;28;20207;-63
2023/04/15 05:06:36;;;;;;;10.40;5.47;;;;;;;15.14;100.00;149841.97;5093632;28;20622;-63
2023/04/15 05:09:03;;;;;;;10.40;5.43;;;;;;;15.13;100.00;149840.69;5093239;28;20196;-63
2023/04/15 05:11:31;;;;;;;8.10;5.07;;;;;;;15.18;100.00;149852.13;5093402;28;20267;-62
2023/04/15 05:14:00;;;;;;;9.63;5.00;;;;;;;15.03;100.00;149815.31;5093148;28;20180;-63
2023/04/15 05:16:27;;;;;;;10.53;5.50;;;;;;;15.37;100.00;149901.56;5093513;28;20264;-62
2023/04/15 05:18:54;;;;;;;12.50;5.87;;;;;;;15.48;100.00;149929.50;5093379;28;20220;-64
2023/04/15 05:21:21;;;;;;;13.83;5.60;;;;;;;15.45;100.00;149920.59;5093189;28;20187;-62
2023/04/15 05:23:48;;;;;;;5.03;4.60;;;;;;;15.43;100.00;149915.53;5092940;28;20299;-63
2023/04/15 05:26:15;;;;;;;9.17;5.20;;;;;;;15.32;100.00;149887.66;5093404;28;20621;-63
2023/04/15 05:28:43;;;;;;;11.50;5.57;;;;;;;15.25;100.00;149869.84;5093317;28;20605;-62
2023/04/15 05:31:10;;;;;;;8.10;5.37;;;;;;;15.31;100.00;149886.38;5092873;28;20220;-62
2023/04/15 05:33:37;;;;;;;6.77;5.53;;;;;;;15.42;100.00;149913.00;5093175;28;20581;-63
2023/04/15 05:36:05;;;;;;;10.90;5.90;;;;;;;15.54;100.00;149943.50;5092821;28;20189;-63
2023/04/15 05:38:32;;;;;;;9.67;5.90;;;;;;;15.50;100.00;149933.34;5092953;28;20576;-63
2023/04/15 05:40:59;;;;;;;10.57;6.10;;;;;;;15.58;100.00;149953.63;5092596;28;20296;-64
2023/04/15 05:43:26;;;;;;;6.10;5.53;;;;;;;15.63;100.00;149965.06;5092697;28;20294;-62
2023/04/15 05:45:55;;;;;;;8.70;6.40;;;;;;;15.42;100.00;149914.28;5092542;28;20271;-63
2023/04/15 05:48:22;;;;;;;20.17;5.30;;;;;;;15.18;100.00;149852.13;5092591;28;20710;-62
2023/04/15 05:50:49;;;;;;;8.90;4.47;;;;;;;15.20;100.00;149858.44;5092427;28;20279;-63
2023/04/15 05:53:16;;;;;;;10.87;5.10;;;;;;;14.99;100.00;149806.44;5092333;28;20195;-62
2023/04/15 05:55:43;;;;;;;7.53;5.20;;;;;;;14.92;100.00;149788.69;5092736;28;20271;-63
2023/04/15 05:58:10;;;;;;;10.50;5.37;;;;;;;14.85;100.00;149769.66;5092347;28;20647;-61
2023/04/15 06:00:37;;;;;;;10.17;5.73;;;;;;;14.89;100.00;149779.81;5092689;28;20257;-62
2023/04/15 06:03:06;;;;;;;10.17;5.30;;;;;;;15.04;100.00;149819.13;5091473;28;20212;-64
2023/04/15 06:05:33;;;;;;;9.87;5.80;;;;;;;14.99;100.00;149806.44;5092215;28;20192;-67
2023/04/15 06:08:01;;;;;;;15.90;6.57;;;;;;;14.72;100.00;149737.97;5091338;28;20622;-63
2023/04/15 06:10:28;;;;;;;12.47;7.07;;;;;;;14.45;100.00;140824.41;5092250;28;20188;-62
2023/04/15 06:12:55;;;;;;;9.10;8.27;;;;;;;14.31;100.00;90034.25;5092352;28;20653;-62
2023/04/15 06:15:22;;;;;;;13.93;9.03;;;;;;;14.12;100.00;57158.16;5091417;28;20621;-62
2023/04/15 06:17:49;;;;;;;12.23;9.47;;;;;;;14.01;100.00;30776.56;5092322;28;20246;-64
2023/04/15 06:20:17;;;;;;;13.53;10.17;;;;;;;13.94;100.00;14276.28;5092298;28;20191;-62
2023/04/15 06:22:44;;;;;;;15.10;11.10;;;;;;;13.92;100.00;6219.63;5092250;28;20604;-62
2023/04/15 06:25:11;;;;;;;14.73;10.07;;;;;;;13.85;100.00;752.16;5092008;28;20593;-63
2023/04/15 06:27:38;;;;;;;15.73;10.53;;;;;;;13.77;100.00;-2780.13;5091903;28;20188;-63
2023/04/15 06:30:06;;;;;;;15.00;11.43;;;;;;;13.86;100.00;-5667.28;5091808;28;20180;-62
2023/04/15 06:32:33;;;;;;;17.27;11.30;;;;;;;13.93;100.00;-5667.53;5092205;28;20619;-63
2023/04/15 06:35:00;;;;;;;15.63;11.30;;;;;;;13.90;100.00;-6629.31;5091944;28;20184;-63
2023/04/15 06:37:29;;;;;;;15.30;12.40;;;;;;;13.77;100.00;-6949.09;5091701;28;20191;-62
2023/04/15 06:39:56;;;;;;;21.17;11.80;;;;;;;13.45;100.00;-6626.91;5091791;28;20200;-63
2023/04/15 06:42:23;;;;;;;16.80;12.30;;;;;;;13.57;100.00;-9510.06;5092244;28;20624;-63
2023/04/15 06:44:50;;;;;;;20.90;12.63;;;;;;;13.50;100.00;-10149.41;5091995;28;20587;-63
2023/04/15 06:47:18;;;;;;;14.43;11.20;;;;;;;13.48;100.00;-11748.91;5091705;28;20191;-64
2023/04/15 06:49:45;;;;;;;13.70;12.33;;;;;;;13.60;100.00;-11110.66;5091930;28;20649;-63
2023/04/15 06:52:12;;;;;;;22.33;11.97;;;;;;;13.80;100.00;-11753.25;5091945;28;20548;-62
2023/04/15 06:54:41;;;;;;;24.77;12.53;;;;;;;13.99;100.00;-10795.38;5091586;28;20180;-62
2023/04/15 06:57:08;;;;;;;16.97;11.60;;;;;;;14.13;100.00;-8874.75;5091892;28;20238;-62
2023/04/15 06:59:35;;;;;;;19.67;11.97;;;;;;;14.35;100.00;-7594.00;5091565;28;20237;-62
2023/04/15 07:02:02;;;;;;;21.23;12.63;;;;;;;14.69;100.00;-5670.41;5091457;28;20271;-63
2023/04/15 07:04:29;;;;;;;19.37;11.93;;;;;;;14.93;100.00;-2457.66;5090170;28;20208;-63
2023/04/15 07:06:56;;;;;;;18.73;12.87;;;;;;;15.35;100.00;3339.41;5091746;28;20563;-63
2023/04/15 07:09:24;;;;;;;16.87;13.43;;;;;;;15.54;100.00;19177.69;5093443;28;20215;-64
2023/04/15 07:11:52;;;;;;;19.13;11.40;;;;;;;15.78;100.00;39340.50;5094471;28;20550;-62
2023/04/15 07:14:19;;;;;;;8.87;8.23;;;;;;;15.83;100.00;54376.50;5095778;28;20180;-63
2023/04/15 07:16:47;;;;;;;7.67;7.07;;;;;;;15.72;100.00;65518.44;5095448;28;20188;-62
2023/04/15 07:19:13;;;;;;;14.17;7.57;;;;;;;15.95;100.00;62259.75;5095643;28;20595;-63
2023/04/15 07:21:41;;;;;;;10.63;7.27;;;;;;;15.99;100.00;69167.00;5095889;28;20602;-62
2023/04/15 07:24:09;;;;;;;8.80;8.03;;;;;;;15.99;100.00;62920.88;5095268;28;20204;-62
2023/04/15 07:26:36;;;;;;;15.03;8.63;;;;;;;15.74;100.00;46517.59;5095583;28;20630;-62
2023/04/15 07:29:04;;;;;;;9.17;8.37;;;;;;;15.54;100.00;36717.44;5095178;28;20284;-64
2023/04/15 07:31:31;;;;;;;9.33;8.60;;;;;;;15.24;100.00;26622.28;5095148;28;20227;-62
2023/04/15 07:33:58;;;;;;;8.43;7.73;;;;;;;15.36;100.00;19494.97;5095392;28;20189;-62
2023/04/15 07:36:25;;;;;;;13.30;8.57;;;;;;;15.46;100.00;19822.66;5095475;28;20706;-62
2023/04/15 07:38:52;;;;;;;12.37;8.03;;;;;;;15.39;100.00;21439.94;5095303;28;20536;-62
2023/04/15 07:41:19;;;;;;;9.83;7.90;;;;;;;15.74;100.00;18860.75;5095594;28;20199;-63
2023/04/15 07:43:47;;;;;;;8.00;7.10;;;;;;;15.96;100.00;21787.31;5095289;28;20204;-63
2023/04/15 07:46:23;;;;;;;7.43;6.40;;;;;;;16.00;100.00;47519.44;5094995;28;20220;-63
2023/04/15 07:48:50;;;;;;;5.07;4.53;;;;;;;16.11;100.00;96604.94;5094755;28;20180;-62
2023/04/15 07:51:18;;;;;;;4.90;4.57;;;;;;;15.98;100.00;96253.59;5095107;28;20658;-63
2023/04/15 07:53:45;;;;;;;6.43;5.13;;;;;;;16.04;100.00;87318.34;5095053;28;20688;-62
2023/04/15 07:56:12;;;;;;;4.67;4.27;;;;;;;16.37;100.00;104954.50;5095287;28;20184;-63
2023/04/15 07:58:39;;;;;;;4.97;4.57;;;;;;;16.56;100.00;150199.91;5094603;28;20292;-63
2023/04/15 08:01:06;;;;;;;3.40;3.20;;;;;;;16.84;100.00;150269.84;5094688;28;20267;-63
2023/04/15 08:03:35;;;;;;;4.13;2.83;;;;;;;17.04;100.00;150320.63;5094639;28;20243;-63
2023/04/15 08:06:04;;;;;;;3.70;3.50;;;;;;;17.19;100.00;150357.47;5094861;28;20184;-63
2023/04/15 08:08:31;;;;;;;4.37;2.80;;;;;;;17.27;100.00;150377.81;5094449;28;20188;-64
2023/04/15 08:10:58;;;;;;;3.70;3.40;;;;;;;17.40;100.00;150410.81;5094388;28;20181;-62
2023/04/15 08:13:26;;;;;;;3.87;3.60;;;;;;;17.47;100.00;150428.66;5094510;28;20633;-62
2023/04/15 08:16:14;;;;;;;3.33;3.20;;;;;;;17.56;100.00;150451.53;5094644;28;20551;-63
2023/04/15 08:18:43;;;;;;;4.83;3.73;;;;;;;17.62;100.00;150466.81;5094649;28;20588;-63
2023/04/15 08:21:10;;;;;;;3.87;3.67;;;;;;;17.66;100.00;150476.97;5094451;28;20271;-63
2023/04/15 08:23:38;;;;;;;3.70;3.40;;;;;;;17.40;100.00;150410.81;5094334;28;20247;-63
2023/04/15 08:26:05;;;;;;;6.30;3.53;;;;;;;17.20;100.00;150360.00;5093899;28;20678;-62
2023/04/15 08:28:32;;;;;;;3.00;2.60;;;;;;;17.08;100.00;150330.81;5094108;28;20189;-63
2023/04/15 08:30:59;;;;;;;3.13;2.30;;;;;;;17.16;100.00;150349.84;5094292;28;20242;-63
2023/04/15 08:33:27;;;;;;;2.60;2.40;;;;;;;17.04;100.00;150319.38;5094328;28;20716;-63
2023/04/15 08:35:56;;;;;;;3.07;2.30;;;;;;;17.37;100.00;150403.22;5094574;28;20691;-62
2023/04/15 08:38:23;;;;;;;2.97;2.77;;;;;;;17.38;100.00;150405.75;5094216;28;20661;-63
2023/04/15 08:40:50;;;;;;;2.20;2.10;;;;;;;17.66;100.00;150476.97;5094340;28;20662;-62
2023/04/15 08:43:23;;;;;;;3.73;2.27;;;;;;;17.87;100.00;150529.06;5093991;28;20192;-63
2023/04/15 08:45:52;;;;;;;2.13;2.00;;;;;;;17.87;100.00;150527.78;5093993;28;20195;-63
2023/04/15 08:48:19;;;;;;;2.10;2.00;;;;;;;17.95;100.00;150548.16;5093836;28;20267;-63
2023/04/15 08:50:47;;;;;;;4.00;2.33;;;;;;;18.20;100.00;150611.75;5093709;28;20280;-63
2023/04/15 08:53:16;;;;;;;2.77;2.10;;;;;;;18.51;100.00;150690.53;5093637;28;20185;-63
2023/04/15 08:55:45;;;;;;;2.50;2.30;;;;;;;18.64;100.00;150722.38;5093637;28;20223;-63
2023/04/15 08:58:13;;;;;;;5.03;2.67;;;;;;;18.79;100.00;150759.28;5093497;28;20184;-64
2023/04/15 09:00:40;;;;;;;3.10;2.10;;;;;;;18.87;100.00;150779.63;5093900;28;20221;-64
2023/04/15 09:03:08;;;;;;;4.47;2.33;;;;;;;18.85;100.00;150775.81;5093706;28;20196;-63
2023/04/15 09:05:38;;;;;;;1.97;1.77;;;;;;;18.82;100.00;150766.91;5093398;28;20246;-62
2023/04/15 09:08:05;;;;;;;2.20;2.00;;;;;;;18.36;100.00;150651.13;5093734;28;20249;-63
2023/04/15 09:10:34;;;;;;;2.63;1.80;;;;;;;18.66;100.00;150727.50;5093827;28;20586;-63
2023/04/15 09:13:01;;;;;;;6.57;2.50;;;;;;;18.62;100.00;150718.59;5093203;28;20658;-63
2023/04/15 09:15:29;;;;;;;7.20;2.57;;;;;;;18.52;100.00;150693.16;5093381;28;20192;-63
2023/04/15 09:17:56;;;;;;;2.70;1.67;;;;;;;18.49;100.00;150685.50;5093419;28;20570;-63
2023/04/15 09:20:23;;;;;;;5.17;1.80;;;;;;;18.32;100.00;150642.25;5093114;28;20276;-62
2023/04/15 09:22:51;;;;;;;2.03;1.90;;;;;;;18.47;100.00;150680.38;5093339;28;20694;-63
2023/04/15 09:25:28;;;;;;;2.03;1.90;;;;;;;18.46;100.00;150676.59;5093288;28;20674;-64
2023/04/15 09:27:58;;;;;;;1.97;1.77;;;;;;;18.82;100.00;150766.91;5093240;28;20254;-63
2023/04/15 09:30:25;;;;;;;2.13;1.93;;;;;;;18.89;100.00;150785.97;5093230;28;20271;-63
2023/04/15 09:32:53;;;;;;;3.83;1.80;;;;;;;19.09;100.00;150836.91;5092302;28;20279;-63
2023/04/15 09:35:21;;;;;;;1.93;1.83;;;;;;;19.04;100.00;150822.91;5093216;28;20286;-63
2023/04/15 09:37:49;;;;;;;4.57;2.10;;;;;;;19.22;100.00;150868.72;5093114;28;20711;-63
2023/04/15 09:40:31;;;;;;;7.97;2.40;;;;;;;19.44;100.00;150923.44;5092990;28;20223;-63
2023/04/15 09:43:00;;;;;;;2.77;1.63;;;;;;;19.97;100.00;151057.09;5092687;28;20180;-65
2023/04/15 09:45:28;;;;;;;3.60;1.60;;;;;;;19.79;100.00;151011.28;5092820;28;20307;-63
2023/04/15 09:47:55;;;;;;;1.57;1.47;;;;;;;19.97;100.00;151057.09;5092774;28;20218;-64
2023/04/15 09:50:22;;;;;;;2.60;1.80;;;;;;;20.02;100.00;151071.13;5092622;28;20286;-63
2023/04/15 09:52:49;;;;;;;1.70;1.60;;;;;;;19.69;100.00;150985.84;5092797;28;20566;-64
2023/04/15 09:55:18;;;;;;;1.77;1.40;;;;;;;19.69;100.00;150985.84;5092946;28;20690;-63
2023/04/15 09:57:47;;;;;;;1.50;1.40;;;;;;;19.69;100.00;150987.06;5092750;28;20231;-63
2023/04/15 10:00:16;;;;;;;2.20;1.80;;;;;;;19.69;100.00;150987.06;5092561;28;20192;-63
2023/04/15 10:02:43;;;;;;;3.50;2.10;;;;;;;19.47;100.00;150932.38;5092365;28;20290;-63
2023/04/15 10:05:13;;;;;;;3.10;1.70;;;;;;;19.79;100.00;151011.28;5092424;28;20670;-63
2023/04/15 10:07:41;;;;;;;2.03;1.80;;;;;;;19.71;100.00;150990.91;5092260;28;20191;-63
2023/04/15 10:10:09;;;;;;;2.00;1.90;;;;;;;19.81;100.00;151017.66;5092239;28;20198;-64
2023/04/15 10:12:38;;;;;;;2.43;2.17;;;;;;;19.96;100.00;151054.56;5092308;28;20662;-63
2023/04/15 10:15:06;;;;;;;5.33;2.00;;;;;;;20.04;100.00;151074.91;5092364;28;20645;-63
2023/04/15 10:17:36;;;;;;;4.97;2.23;;;;;;;20.30;100.00;151141.19;5092403;28;20184;-63
2023/04/15 10:20:05;;;;;;;2.93;1.90;;;;;;;20.48;100.00;151187.03;5092139;28;20216;-63
2023/04/15 10:22:33;;;;;;;2.33;1.93;;;;;;;20.60;100.00;151215.03;5092113;28;20184;-64
2023/04/15 10:25:00;;;;;;;1.53;1.43;;;;;;;20.95;100.00;151305.50;5092197;28;20727;-63
2023/04/15 10:27:28;;;;;;;2.80;1.80;;;;;;;21.06;100.00;151332.22;5092139;28;20211;-63
2023/04/15 10:29:56;;;;;;;3.10;1.60;;;;;;;21.02;100.00;151322.03;5092190;28;20563;-64
2023/04/15 10:32:25;;;;;;;4.45;2.00;;;;;;;21.09;100.00;151339.84;5091942;28;20278;-64
2023/04/15 10:34:54;;;;;;;2.30;1.70;;;;;;;21.10;100.00;151341.13;5091817;28;20344;-63
2023/04/15 10:37:22;;;;;;;1.42;1.42;;;;;;;21.29;100.00;151389.63;5092430;28;20192;-63
2023/04/15 10:39:49;;;;;;;3.47;1.80;;;;;;;21.38;100.00;151413.84;5091969;28;20215;-64
2023/04/15 10:42:21;;;;;;;2.03;1.52;;;;;;;21.54;100.00;151452.06;5092184;28;20626;-64
2023/04/15 10:44:51;;;;;;;1.90;1.70;;;;;;;21.57;100.00;151459.69;5091230;28;20229;-64
2023/04/15 10:47:20;;;;;;;2.10;2.00;;;;;;;21.63;100.00;151475.00;5091999;28;20230;-64
2023/04/15 10:49:48;;;;;;;1.80;1.70;;;;;;;21.70;100.00;151494.13;5091990;28;20633;-64
2023/04/15 10:52:22;;;;;;;3.93;1.50;;;;;;;21.67;100.00;151485.22;5091963;28;20241;-64
2023/04/15 10:54:49;;;;;;;1.48;1.38;;;;;;;21.72;100.00;151497.97;5091919;28;20714;-65
2023/04/15 10:57:21;;;;;;;1.63;1.40;;;;;;;21.78;100.00;151513.22;5091566;28;20270;-63
2023/04/15 11:00:12;;;;;;;4.60;1.50;;;;;;;21.74;100.00;151504.31;5091851;28;20665;-64
2023/04/15 11:02:47;;;;;;;1.45;1.40;;;;;;;21.64;100.00;151477.56;5091527;28;20194;-63
2023/04/15 11:05:15;;;;;;;2.67;1.67;;;;;;;21.50;100.00;151441.88;5091437;28;20214;-64
2023/04/15 11:07:49;;;;;;;1.70;1.60;;;;;;;21.23;100.00;151375.59;5091690;28;20179;-63
2023/04/15 11:10:50;;;;;;;1.85;1.75;;;;;;;21.19;100.00;151365.41;5091805;28;20257;-63
2023/04/15 11:13:20;;;;;;;1.87;1.77;;;;;;;21.24;100.00;151376.88;5091346;28;20224;-63
2023/04/15 11:15:49;;;;;;;3.67;1.70;;;;;;;21.05;100.00;151328.44;5091664;28;20575;-64